Time;durP1;ratioP1;P1;durP2;ratioP2;P2;SDS_P1;SDS_P2;PMS_P1;PMS_P2;Temp;Humidity;BMP_temperature;BMP_pressure;BME280_temperature;BME280_humidity;BME280_pressure;Samples;Min_cycle;Max_cycle;Signal;HPM_P1;HPM_P2
2021/11/05 00:02:20;;;;;;;31.30;22.22;;;;;;;11.00;100.00;99936.45;1717567;83;20948;-73
2021/11/05 00:04:46;;;;;;;33.88;24.77;;;;;;;11.04;100.00;99936.23;1670373;83;21085;-74
2021/11/05 00:07:12;;;;;;;33.92;24.87;;;;;;;11.02;100.00;99930.30;1718703;83;21015;-73
2021/11/05 00:09:40;;;;;;;32.33;24.05;;;;;;;11.01;100.00;99915.73;1714875;83;22337;-72
2021/11/05 00:12:08;;;;;;;34.75;23.67;;;;;;;11.02;100.00;99911.47;1737265;81;21714;-80
2021/11/05 00:14:34;;;;;;;28.87;22.65;;;;;;;11.02;100.00;99905.27;1735812;80;21010;-81
2021/11/05 00:17:03;;;;;;;25.35;21.30;;;;;;;11.02;100.00;99907.42;1769436;80;21114;-83
2021/11/05 00:19:31;;;;;;;29.67;24.35;;;;;;;11.06;100.00;99910.43;1762768;80;21025;-82
2021/11/05 00:21:57;;;;;;;29.67;23.65;;;;;;;11.07;100.00;99903.99;1728516;81;21202;-83
2021/11/05 00:24:23;;;;;;;28.95;22.10;;;;;;;11.07;100.00;99892.70;1751654;82;20945;-83
2021/11/05 00:26:50;;;;;;;31.42;21.97;;;;;;;11.07;100.00;99886.50;1766654;80;21010;-82
2021/11/05 00:29:16;;;;;;;29.07;22.50;;;;;;;11.07;100.00;99890.01;1781126;80;21031;-85
2021/11/05 00:31:43;;;;;;;31.87;23.50;;;;;;;11.05;100.00;99878.66;1758570;80;20961;-75
2021/11/05 00:34:11;;;;;;;27.25;21.85;;;;;;;11.05;100.00;99877.84;1751996;81;21154;-73
2021/11/05 00:36:37;;;;;;;29.77;23.18;;;;;;;11.09;100.00;99869.02;1751979;81;21096;-81
2021/11/05 00:39:03;;;;;;;25.10;20.92;;;;;;;11.17;100.00;99859.72;1752341;80;21052;-80
2021/11/05 00:41:30;;;;;;;29.15;23.42;;;;;;;11.20;100.00;99857.86;1752149;81;21502;-80
2021/11/05 00:43:56;;;;;;;33.88;23.73;;;;;;;11.18;100.00;99850.03;1752647;80;21072;-78
2021/11/05 00:46:23;;;;;;;28.05;20.35;;;;;;;11.18;100.00;99855.41;1753515;80;21900;-78
2021/11/05 00:48:50;;;;;;;26.15;21.00;;;;;;;11.20;100.00;99849.78;1758338;80;21490;-81
2021/11/05 00:51:16;;;;;;;30.27;21.50;;;;;;;11.19;100.00;99857.05;1771335;80;21071;-79
2021/11/05 00:53:42;;;;;;;30.25;23.02;;;;;;;11.19;100.00;99867.00;1745768;81;20988;-78
2021/11/05 00:56:09;;;;;;;31.87;22.95;;;;;;;11.19;100.00;99869.69;1738931;81;21069;-79
2021/11/05 00:58:35;;;;;;;30.85;20.27;;;;;;;11.20;100.00;99873.48;1764912;80;21059;-76
2021/11/05 01:01:02;;;;;;;27.98;21.90;;;;;;;11.26;100.00;99881.92;1763761;80;21088;-79
2021/11/05 01:03:28;;;;;;;27.02;21.82;;;;;;;11.30;100.00;99891.12;1773284;80;21017;-78
2021/11/05 01:05:54;;;;;;;24.25;19.75;;;;;;;11.34;100.00;99886.05;1755860;80;21001;-80
2021/11/05 01:08:21;;;;;;;26.23;22.00;;;;;;;11.34;100.00;99884.17;1768919;80;20993;-77
2021/11/05 01:10:48;;;;;;;30.02;22.42;;;;;;;11.32;100.00;99888.98;1771908;80;21187;-78
2021/11/05 01:13:15;;;;;;;26.90;21.87;;;;;;;11.32;100.00;99890.86;1789955;80;21010;-80
2021/11/05 01:15:43;;;;;;;21.05;17.57;;;;;;;11.32;100.00;99887.63;1764326;81;21606;-76
2021/11/05 01:18:09;;;;;;;23.32;20.80;;;;;;;11.36;100.00;99883.94;1764130;79;20986;-76
2021/11/05 01:20:35;;;;;;;29.18;21.20;;;;;;;11.36;100.00;99889.31;1770585;80;21002;-74
2021/11/05 01:23:02;;;;;;;25.25;21.45;;;;;;;11.39;100.00;99882.08;1765402;80;21123;-74
2021/11/05 01:25:29;;;;;;;24.07;20.27;;;;;;;11.39;100.00;99890.16;1737995;81;20977;-87
2021/11/05 01:27:56;;;;;;;26.15;20.90;;;;;;;11.38;100.00;99887.98;1738105;81;21101;-75
2021/11/05 01:30:23;;;;;;;27.95;21.23;;;;;;;11.40;100.00;99880.20;1763372;80;21471;-72
2021/11/05 01:32:50;;;;;;;28.17;20.75;;;;;;;11.38;100.00;99870.48;1764091;81;21216;-73
2021/11/05 01:35:16;;;;;;;24.85;21.02;;;;;;;11.46;100.00;99850.39;1737475;81;21045;-74
2021/11/05 01:37:42;;;;;;;23.73;19.87;;;;;;;11.48;100.00;99852.28;1712948;81;21001;-73
2021/11/05 01:40:10;;;;;;;24.65;20.20;;;;;;;11.50;100.00;99848.82;1735595;81;21598;-77
2021/11/05 01:42:38;;;;;;;27.52;21.90;;;;;;;11.57;100.00;99849.42;1735708;81;21014;-78
2021/11/05 01:45:07;;;;;;;24.55;19.95;;;;;;;11.59;100.00;99855.92;1741073;80;21523;-76
2021/11/05 01:47:36;;;;;;;25.68;19.95;;;;;;;11.55;100.00;99854.27;1734207;82;20921;-79
2021/11/05 01:50:03;;;;;;;26.70;21.10;;;;;;;11.51;100.00;99849.64;1758435;81;21000;-75
2021/11/05 01:52:29;;;;;;;26.65;20.00;;;;;;;11.48;100.00;99847.43;1732985;81;21538;-75
2021/11/05 01:54:56;;;;;;;21.97;16.95;;;;;;;11.50;100.00;99851.52;1754646;81;21050;-76
2021/11/05 01:57:22;;;;;;;25.10;20.52;;;;;;;11.52;100.00;99848.55;1747785;81;21592;-73
2021/11/05 01:59:52;;;;;;;26.37;21.35;;;;;;;11.54;100.00;99857.20;1725043;82;21936;-74
2021/11/05 02:02:19;;;;;;;23.90;20.10;;;;;;;11.58;100.00;99861.02;1750569;81;21521;-78
2021/11/05 02:04:45;;;;;;;23.75;20.62;;;;;;;11.59;100.00;99859.96;1729550;82;20984;-74
2021/11/05 02:07:12;;;;;;;23.62;19.65;;;;;;;11.61;100.00;99859.97;1750438;82;21031;-75
2021/11/05 02:09:39;;;;;;;25.92;21.37;;;;;;;11.62;100.00;99864.30;1738098;82;21008;-75
2021/11/05 02:12:08;;;;;;;24.80;20.27;;;;;;;11.62;100.00;99868.34;1735342;82;21194;-74
2021/11/05 02:14:34;;;;;;;22.45;18.45;;;;;;;11.61;100.00;99868.05;1723037;82;20991;-74
2021/11/05 02:17:03;;;;;;;21.68;19.05;;;;;;;11.62;100.00;99865.65;1728711;82;20947;-73
2021/11/05 02:19:32;;;;;;;22.37;19.23;;;;;;;11.64;100.00;99864.87;1739401;82;21091;-72
2021/11/05 02:22:00;;;;;;;27.37;20.75;;;;;;;11.63;100.00;99863.24;1735546;82;21529;-75
2021/11/05 02:24:28;;;;;;;27.60;22.55;;;;;;;11.61;100.00;99861.84;1735318;82;21290;-74
2021/11/05 02:26:55;;;;;;;22.70;19.95;;;;;;;11.57;100.00;99857.50;1735180;82;20936;-74
2021/11/05 02:29:21;;;;;;;25.02;19.95;;;;;;;11.60;100.00;99852.98;1745363;82;21570;-75
2021/11/05 02:31:48;;;;;;;27.65;19.82;;;;;;;11.64;100.00;99850.59;1750570;82;20984;-76
2021/11/05 02:34:14;;;;;;;22.37;18.70;;;;;;;11.71;100.00;99856.05;1762588;80;21040;-77
2021/11/05 02:36:40;;;;;;;26.17;21.37;;;;;;;11.72;100.00;99854.17;1717705;82;21876;-77
2021/11/05 02:39:08;;;;;;;26.57;21.87;;;;;;;11.74;100.00;99859.63;1725409;82;21084;-74
2021/11/05 02:41:36;;;;;;;24.47;19.70;;;;;;;11.76;100.00;99863.41;1741685;81;21044;-75
2021/11/05 02:44:03;;;;;;;25.27;18.75;;;;;;;11.79;100.00;99858.88;1743861;81;21493;-75
2021/11/05 02:46:30;;;;;;;30.45;21.68;;;;;;;11.83;100.00;99868.07;1694217;82;21498;-75
2021/11/05 02:49:02;;;;;;;24.57;19.10;;;;;;;11.85;100.00;99867.80;1728608;81;21043;-76
2021/11/05 02:51:28;;;;;;;27.25;21.62;;;;;;;11.86;100.00;99881.56;1732559;81;21007;-74
2021/11/05 02:53:55;;;;;;;29.87;19.50;;;;;;;11.86;100.00;99877.52;1706063;83;21076;-75
2021/11/05 02:56:22;;;;;;;23.10;19.07;;;;;;;11.84;100.00;99876.45;1722727;82;21036;-76
2021/11/05 02:58:50;;;;;;;24.27;20.48;;;;;;;11.86;100.00;99876.98;1731193;82;20994;-76
2021/11/05 03:01:17;;;;;;;23.60;19.80;;;;;;;11.87;100.00;99869.72;1731564;82;21241;-75
2021/11/05 03:03:44;;;;;;;27.98;21.45;;;;;;;11.88;100.00;99876.22;1705460;83;21057;-74
2021/11/05 03:06:10;;;;;;;25.00;21.35;;;;;;;11.93;100.00;99867.37;1703244;83;21019;-75
2021/11/05 03:08:37;;;;;;;25.05;20.60;;;;;;;11.96;100.00;99862.80;1715749;83;21554;-74
2021/11/05 03:11:03;;;;;;;25.65;20.65;;;;;;;11.94;100.00;99861.70;1721054;83;21044;-72
2021/11/05 03:13:30;;;;;;;27.48;21.80;;;;;;;11.94;100.00;99860.91;1706342;83;21102;-74
2021/11/05 03:15:57;;;;;;;23.10;20.57;;;;;;;11.91;100.00;99860.88;1720636;82;21049;-73
2021/11/05 03:18:30;;;;;;;27.55;21.90;;;;;;;11.95;100.00;99857.94;1732846;82;20992;-77
2021/11/05 03:20:52;;;;;;;23.07;19.20;;;;;;;11.97;100.00;99853.66;1716755;82;21082;-77
2021/11/05 03:23:18;;;;;;;23.30;20.80;;;;;;;11.96;100.00;99860.92;1737409;82;21031;-78
2021/11/05 03:25:44;;;;;;;31.02;22.70;;;;;;;11.97;100.00;99860.39;1738521;81;21633;-81
2021/11/05 03:28:11;;;;;;;25.95;21.85;;;;;;;11.97;100.00;99854.47;1715570;81;21550;-81
2021/11/05 03:30:38;;;;;;;22.30;17.40;;;;;;;11.96;100.00;99858.23;1733216;81;21027;-75
2021/11/05 03:33:04;;;;;;;30.57;22.80;;;;;;;12.00;100.00;99863.91;1723386;83;21059;-76
2021/11/05 03:35:31;;;;;;;28.17;22.00;;;;;;;11.98;100.00;99849.37;1727509;81;21018;-76
2021/11/05 03:37:58;;;;;;;25.70;21.62;;;;;;;12.02;100.00;99848.31;1713775;81;21116;-77
2021/11/05 03:40:24;;;;;;;27.17;21.25;;;;;;;12.06;100.00;99844.03;1742858;81;21533;-77
2021/11/05 03:42:53;;;;;;;26.27;21.02;;;;;;;12.12;100.00;99833.05;1757101;81;21532;-77
2021/11/05 03:45:20;;;;;;;27.60;21.95;;;;;;;12.18;100.00;99835.27;1733178;81;21560;-78
2021/11/05 03:47:47;;;;;;;25.35;20.37;;;;;;;12.22;100.00;99838.53;1751573;81;21017;-77
2021/11/05 03:50:14;;;;;;;29.37;23.12;;;;;;;12.27;100.00;99838.30;1704620;82;21163;-77
2021/11/05 03:52:40;;;;;;;26.52;21.60;;;;;;;12.27;100.00;99827.51;1732494;82;20953;-77
2021/11/05 03:55:07;;;;;;;27.70;22.80;;;;;;;12.28;100.00;99830.49;1754621;80;21012;-78
2021/11/05 03:57:34;;;;;;;28.05;21.82;;;;;;;12.26;100.00;99848.80;1722535;82;21056;-78
2021/11/05 04:00:00;;;;;;;26.97;22.45;;;;;;;12.24;100.00;99840.42;1727586;82;21556;-77
2021/11/05 04:02:26;;;;;;;27.62;20.62;;;;;;;12.23;100.00;99842.84;1735656;82;21906;-77
2021/11/05 04:04:55;;;;;;;26.33;21.17;;;;;;;12.24;100.00;99846.34;1735165;82;21055;-78
2021/11/05 04:07:22;;;;;;;28.27;21.10;;;;;;;12.29;100.00;99853.14;1731801;80;21039;-78
2021/11/05 04:09:49;;;;;;;28.32;21.42;;;;;;;12.33;100.00;99851.55;1727178;82;20972;-78
2021/11/05 04:12:15;;;;;;;21.55;18.20;;;;;;;12.34;100.00;99851.83;1709150;80;21483;-78
2021/11/05 04:14:42;;;;;;;29.23;21.45;;;;;;;12.38;100.00;99854.81;1725351;82;21903;-78
2021/11/05 04:17:08;;;;;;;27.30;21.37;;;;;;;12.35;100.00;99854.81;1739169;82;20967;-78
2021/11/05 04:19:35;;;;;;;27.95;23.30;;;;;;;12.32;100.00;99845.90;1743567;82;20992;-80
2021/11/05 04:22:01;;;;;;;29.40;23.87;;;;;;;12.30;100.00;99854.77;1764797;80;21141;-80
2021/11/05 04:24:29;;;;;;;31.23;23.02;;;;;;;12.29;100.00;99851.78;1739138;81;36279;-79
2021/11/05 04:26:55;;;;;;;31.55;23.87;;;;;;;12.31;100.00;99856.94;1762070;81;22007;-79
2021/11/05 04:29:22;;;;;;;25.27;21.55;;;;;;;12.30;100.00;99866.09;1737874;81;21026;-82
2021/11/05 04:31:48;;;;;;;28.38;23.07;;;;;;;12.37;100.00;99861.31;1738286;81;21532;-82
2021/11/05 04:34:15;;;;;;;28.80;22.70;;;;;;;12.41;100.00;99858.37;1731645;82;21035;-83
2021/11/05 04:36:41;;;;;;;26.85;21.82;;;;;;;12.43;100.00;99857.03;1750115;81;21012;-81
2021/11/05 04:39:14;;;;;;;27.75;23.55;;;;;;;12.47;100.00;99858.70;1762413;81;21287;-76
2021/11/05 04:41:36;;;;;;;27.55;22.17;;;;;;;12.50;100.00;99862.22;1710184;83;20952;-83
2021/11/05 04:44:04;;;;;;;31.40;23.47;;;;;;;12.54;100.00;99858.73;1736041;80;20978;-83
2021/11/05 04:46:30;;;;;;;33.48;24.05;;;;;;;12.55;100.00;99851.46;1721213;82;20994;-82
2021/11/05 04:48:56;;;;;;;29.48;22.52;;;;;;;12.52;100.00;99850.08;1741624;80;20988;-84
2021/11/05 04:51:22;;;;;;;30.77;24.20;;;;;;;12.54;100.00;99847.95;1736912;80;21378;-86
2021/11/05 04:53:49;;;;;;;30.72;24.05;;;;;;;12.54;100.00;99843.91;1702005;80;20999;-85
2021/11/05 04:56:15;;;;;;;28.60;22.00;;;;;;;12.54;100.00;99839.04;1703310;83;21038;-86
2021/11/05 04:58:42;;;;;;;24.52;18.98;;;;;;;12.54;100.00;99842.55;1701300;82;21017;-86
2021/11/05 05:01:08;;;;;;;29.52;25.20;;;;;;;12.54;100.00;99837.16;1731195;82;20988;-83
2021/11/05 05:03:34;;;;;;;28.50;23.38;;;;;;;12.54;100.00;99849.30;1704648;82;22813;-79
2021/11/05 05:06:01;;;;;;;28.95;22.20;;;;;;;12.56;100.00;99851.75;1730988;82;20931;-81
2021/11/05 05:08:28;;;;;;;30.97;24.07;;;;;;;12.54;100.00;99848.48;1706629;82;21006;-80
2021/11/05 05:10:54;;;;;;;25.95;22.62;;;;;;;12.54;100.00;99853.88;1710361;82;20986;-81
2021/11/05 05:13:21;;;;;;;36.25;23.45;;;;;;;12.57;100.00;99850.66;1725443;81;21115;-74
2021/11/05 05:15:49;;;;;;;29.23;22.93;;;;;;;12.59;100.00;99849.34;1741693;80;21189;-75
2021/11/05 05:18:16;;;;;;;31.30;24.00;;;;;;;12.57;100.00;99856.86;1740644;82;20928;-75
2021/11/05 05:20:45;;;;;;;31.02;23.87;;;;;;;12.61;100.00;99862.58;1740054;81;21024;-75
2021/11/05 05:23:12;;;;;;;26.37;21.68;;;;;;;12.60;100.00;99864.46;1755775;81;21019;-73
2021/11/05 05:25:40;;;;;;;31.27;20.45;;;;;;;12.61;100.00;99864.72;1734716;81;21015;-74
2021/11/05 05:28:06;;;;;;;32.13;25.17;;;;;;;12.61;100.00;99863.92;1734730;81;21772;-74
2021/11/05 05:30:33;;;;;;;33.05;24.55;;;;;;;12.62;100.00;99862.83;1763390;81;21533;-76
2021/11/05 05:33:00;;;;;;;28.10;20.60;;;;;;;12.65;100.00;99864.50;1763863;80;21520;-75
2021/11/05 05:35:27;;;;;;;26.55;22.25;;;;;;;12.68;100.00;99854.53;1729272;81;21066;-75
2021/11/05 05:37:54;;;;;;;25.97;19.60;;;;;;;12.73;100.00;99859.14;1770156;80;21065;-77
2021/11/05 05:40:23;;;;;;;27.95;21.97;;;;;;;12.78;100.00;99848.91;1738904;80;21271;-75
2021/11/05 05:42:50;;;;;;;26.15;20.48;;;;;;;12.78;100.00;99852.43;1779985;80;21034;-75
2021/11/05 05:45:17;;;;;;;29.32;21.02;;;;;;;12.79;100.00;99857.30;1733632;81;21590;-76
2021/11/05 05:47:43;;;;;;;31.20;20.37;;;;;;;12.79;100.00;99851.37;1733894;81;21007;-74
2021/11/05 05:50:13;;;;;;;24.07;18.80;;;;;;;12.81;100.00;99853.78;1761206;81;21000;-74
2021/11/05 05:52:40;;;;;;;31.12;21.07;;;;;;;12.88;100.00;99864.64;1761036;81;21342;-80
2021/11/05 05:55:07;;;;;;;26.80;22.55;;;;;;;12.90;100.00;99859.00;1733509;80;20987;-75
2021/11/05 05:57:35;;;;;;;27.17;21.60;;;;;;;12.95;100.00;99853.63;1730980;82;21131;-75
2021/11/05 06:00:04;;;;;;;31.42;22.60;;;;;;;12.94;100.00;99866.84;1741122;81;21043;-77
2021/11/05 06:02:30;;;;;;;26.23;20.77;;;;;;;12.93;100.00;99876.83;1709542;81;20995;-74
2021/11/05 06:04:57;;;;;;;25.92;19.82;;;;;;;12.94;100.00;99873.59;1737859;81;21261;-76
2021/11/05 06:07:23;;;;;;;27.85;19.75;;;;;;;12.99;100.00;99874.98;1734755;81;20980;-76
2021/11/05 06:09:49;;;;;;;27.42;22.25;;;;;;;13.03;100.00;99880.94;1734592;81;21003;-75
2021/11/05 06:12:16;;;;;;;35.25;23.80;;;;;;;13.06;100.00;99886.34;1764011;80;21179;-75
2021/11/05 06:14:44;;;;;;;35.25;24.52;;;;;;;13.07;100.00;99877.98;1762694;80;20900;-78
2021/11/05 06:17:12;;;;;;;28.80;23.98;;;;;;;13.10;100.00;99880.69;1758555;80;21678;-75
2021/11/05 06:19:40;;;;;;;30.82;23.12;;;;;;;13.16;100.00;99886.44;1753168;80;21230;-74
2021/11/05 06:22:06;;;;;;;32.70;23.98;;;;;;;13.17;100.00;99892.13;1776758;80;21054;-78
2021/11/05 06:24:32;;;;;;;28.57;22.37;;;;;;;13.19;100.00;99894.00;1733282;81;21092;-77
2021/11/05 06:26:59;;;;;;;28.83;22.67;;;;;;;13.20;100.00;99902.92;1761494;81;21080;-76
2021/11/05 06:29:25;;;;;;;28.85;21.42;;;;;;;13.18;100.00;99895.10;1727439;82;21056;-77
2021/11/05 06:31:52;;;;;;;31.95;22.48;;;;;;;13.18;100.00;99891.58;1740516;82;22173;-77
2021/11/05 06:34:18;;;;;;;28.57;19.98;;;;;;;13.17;100.00;99890.77;1721176;82;20957;-77
2021/11/05 06:36:44;;;;;;;28.38;22.55;;;;;;;13.22;100.00;99901.60;1724815;81;21066;-76
2021/11/05 06:39:13;;;;;;;25.82;20.72;;;;;;;13.24;100.00;99904.84;1761359;81;20967;-76
2021/11/05 06:41:39;;;;;;;26.17;20.50;;;;;;;13.24;100.00;99894.03;1744444;81;21878;-76
2021/11/05 06:44:06;;;;;;;31.23;23.50;;;;;;;13.22;100.00;99896.73;1764247;81;21040;-75
2021/11/05 06:46:32;;;;;;;23.02;19.57;;;;;;;13.20;100.00;99897.52;1776674;80;20914;-77
2021/11/05 06:48:58;;;;;;;30.02;22.42;;;;;;;13.19;100.00;99891.30;1729014;81;21025;-73
2021/11/05 06:51:25;;;;;;;26.77;18.60;;;;;;;13.21;100.00;99895.10;1761716;81;21042;-77
2021/11/05 06:53:51;;;;;;;24.30;20.08;;;;;;;13.25;100.00;99889.45;1764292;81;21149;-74
2021/11/05 06:56:18;;;;;;;25.62;19.57;;;;;;;13.27;100.00;99886.77;1764388;81;20947;-75
2021/11/05 06:58:46;;;;;;;26.50;18.80;;;;;;;13.27;100.00;99889.48;1764228;80;21004;-75
2021/11/05 07:01:13;;;;;;;31.70;20.10;;;;;;;13.31;100.00;99882.47;1764440;81;22154;-74
2021/11/05 07:03:39;;;;;;;28.05;19.17;;;;;;;13.34;100.00;99885.98;1738877;81;21003;-75
2021/11/05 07:06:05;;;;;;;27.37;21.07;;;;;;;13.32;100.00;99878.70;1764299;80;21087;-73
2021/11/05 07:08:33;;;;;;;24.77;20.72;;;;;;;13.33;100.00;99882.22;1764070;80;20948;-74
2021/11/05 07:11:01;;;;;;;31.73;23.30;;;;;;;13.36;100.00;99885.73;1764218;81;21031;-75
2021/11/05 07:13:27;;;;;;;36.25;25.08;;;;;;;13.36;100.00;99881.14;1764244;81;21517;-73
2021/11/05 07:15:54;;;;;;;32.50;21.42;;;;;;;13.38;100.00;99883.59;1764409;81;21011;-75
2021/11/05 07:18:21;;;;;;;28.57;21.17;;;;;;;13.41;100.00;99884.41;1738311;81;21043;-74
2021/11/05 07:20:49;;;;;;;35.88;23.15;;;;;;;13.47;100.00;99885.52;1764128;81;21566;-75
2021/11/05 07:23:15;;;;;;;36.83;24.20;;;;;;;13.49;100.00;99883.36;1764300;80;20992;-75
2021/11/05 07:25:42;;;;;;;30.20;22.00;;;;;;;13.52;100.00;99896.89;1743198;81;21082;-75
2021/11/05 07:28:09;;;;;;;30.70;22.20;;;;;;;13.56;100.00;99906.09;1747700;80;21028;-76
2021/11/05 07:30:37;;;;;;;35.08;22.87;;;;;;;13.60;100.00;99907.72;1747640;81;21039;-75
2021/11/05 07:33:04;;;;;;;35.17;22.87;;;;;;;13.60;100.00;99900.97;1764253;80;20944;-79
2021/11/05 07:35:32;;;;;;;31.40;20.90;;;;;;;13.59;100.00;99905.55;1764283;80;20979;-75
2021/11/05 07:37:59;;;;;;;44.38;25.15;;;;;;;13.64;100.00;99908.28;1770215;80;21558;-74
2021/11/05 07:40:26;;;;;;;33.45;22.27;;;;;;;13.69;100.00;99904.78;1751203;81;21561;-77
2021/11/05 07:42:52;;;;;;;30.60;21.20;;;;;;;13.70;100.00;99900.47;1738544;81;21001;-74
2021/11/05 07:45:19;;;;;;;31.93;23.52;;;;;;;13.71;100.00;99903.45;1738327;81;20942;-75
2021/11/05 07:47:46;;;;;;;36.08;22.77;;;;;;;13.76;100.00;99898.60;1738551;81;20970;-75
2021/11/05 07:50:15;;;;;;;32.60;21.37;;;;;;;13.76;100.00;99894.55;1764158;81;21030;-73
2021/11/05 07:52:41;;;;;;;25.77;20.10;;;;;;;13.79;100.00;99902.94;1770677;80;21041;-75
2021/11/05 07:55:09;;;;;;;30.65;21.82;;;;;;;13.83;100.00;99911.31;1707295;82;21103;-76
2021/11/05 07:57:37;;;;;;;26.87;18.98;;;;;;;13.90;100.00;99906.48;1740264;81;20984;-76
2021/11/05 08:00:10;;;;;;;32.93;22.77;;;;;;;13.95;100.00;99910.02;1724121;82;20987;-75
2021/11/05 08:02:38;;;;;;;27.95;19.82;;;;;;;13.97;100.00;99910.55;1750469;82;21066;-75
2021/11/05 08:05:05;;;;;;;30.85;21.40;;;;;;;14.00;100.00;99910.57;1750461;82;21012;-78
2021/11/05 08:07:32;;;;;;;33.38;23.42;;;;;;;14.04;100.00;99915.72;1701066;82;21065;-74
2021/11/05 08:09:59;;;;;;;32.98;23.45;;;;;;;14.06;100.00;99933.01;1750375;80;20930;-74
2021/11/05 08:12:26;;;;;;;32.65;21.80;;;;;;;14.07;100.00;99935.98;1749282;81;21454;-78
2021/11/05 08:14:53;;;;;;;38.92;23.32;;;;;;;14.09;100.00;99921.14;1725321;81;28806;-74
2021/11/05 08:17:19;;;;;;;40.35;23.77;;;;;;;14.11;100.00;99924.37;1714347;82;21097;-75
2021/11/05 08:19:45;;;;;;;39.25;25.10;;;;;;;14.12;100.00;99914.37;1749701;82;21072;-77
2021/11/05 08:22:12;;;;;;;32.13;20.92;;;;;;;14.15;100.00;99913.85;1750395;82;20939;-75
2021/11/05 08:24:38;;;;;;;39.65;23.05;;;;;;;14.23;100.00;99934.42;1749050;82;20947;-76
2021/11/05 08:27:05;;;;;;;36.33;24.50;;;;;;;14.29;100.00;99949.56;1734546;82;21036;-75
2021/11/05 08:29:32;;;;;;;44.93;26.40;;;;;;;14.33;100.00;99945.27;1734712;82;21073;-74
2021/11/05 08:31:58;;;;;;;35.78;23.18;;;;;;;14.40;100.00;99948.54;1723477;81;21532;-76
2021/11/05 08:34:24;;;;;;;28.10;19.15;;;;;;;14.47;100.00;99956.95;1727257;81;21007;-76
2021/11/05 08:36:51;;;;;;;36.90;24.07;;;;;;;14.53;100.00;99962.64;1740891;81;20936;-75
2021/11/05 08:39:17;;;;;;;41.45;26.75;;;;;;;14.59;100.00;99954.24;1735117;80;21036;-77
2021/11/05 08:41:43;;;;;;;33.60;25.17;;;;;;;14.63;100.00;99948.55;1735579;80;21083;-78
2021/11/05 08:44:11;;;;;;;37.88;23.85;;;;;;;14.68;100.00;99945.85;1714108;81;21054;-75
2021/11/05 08:46:38;;;;;;;43.85;28.38;;;;;;;14.73;100.00;99944.50;1704225;84;21064;-76
2021/11/05 08:49:10;;;;;;;40.70;24.67;;;;;;;14.81;100.00;99943.98;1704213;83;21039;-75
2021/11/05 08:51:42;;;;;;;35.52;24.47;;;;;;;14.90;100.00;99949.66;1702211;82;21058;-73
2021/11/05 08:54:09;;;;;;;33.95;21.80;;;;;;;14.97;100.00;99938.53;1741254;81;21575;-74
2021/11/05 08:56:35;;;;;;;33.75;20.55;;;;;;;15.00;100.00;99931.23;1713494;83;21548;-73
2021/11/05 08:59:02;;;;;;;35.83;24.02;;;;;;;15.01;100.00;99922.81;1732280;81;21492;-75
2021/11/05 09:01:29;;;;;;;35.08;26.40;;;;;;;15.00;100.00;99919.86;1718372;82;21563;-74
2021/11/05 09:03:55;;;;;;;34.20;24.65;;;;;;;14.93;100.00;99915.25;1701573;83;21556;-74
2021/11/05 09:06:22;;;;;;;41.75;27.17;;;;;;;14.89;100.00;99926.90;1725201;82;21020;-73
2021/11/05 09:08:51;;;;;;;35.60;24.37;;;;;;;14.87;100.00;99917.69;1721273;82;21054;-73
2021/11/05 09:11:17;;;;;;;36.83;24.75;;;;;;;14.89;100.00;99922.84;1747638;82;20917;-73
2021/11/05 09:13:44;;;;;;;35.83;23.73;;;;;;;14.81;100.00;99923.67;1719246;82;21122;-73
2021/11/05 09:16:10;;;;;;;38.67;26.65;;;;;;;14.81;100.00;99918.80;1766025;80;21079;-71
2021/11/05 09:18:37;;;;;;;37.25;27.48;;;;;;;14.80;100.00;99918.52;1717991;80;21541;-74
2021/11/05 09:21:04;;;;;;;38.70;25.10;;;;;;;14.79;100.00;99909.58;1685911;84;21588;-73
2021/11/05 09:23:31;;;;;;;36.93;26.05;;;;;;;14.81;100.00;99918.25;1711616;82;21004;-74
2021/11/05 09:25:57;;;;;;;38.73;28.50;;;;;;;14.85;100.00;99927.99;1722154;82;20996;-75
2021/11/05 09:28:24;;;;;;;35.78;26.27;;;;;;;14.89;100.00;99933.67;1717422;82;21130;-77
2021/11/05 09:30:51;;;;;;;43.63;29.85;;;;;;;14.97;100.00;99924.45;1685518;84;21051;-76
2021/11/05 09:33:19;;;;;;;40.95;28.62;;;;;;;14.99;100.00;99938.55;1704389;83;21077;-77
2021/11/05 09:35:46;;;;;;;43.08;29.42;;;;;;;15.04;100.00;99922.83;1694223;82;21026;-73
2021/11/05 09:38:14;;;;;;;38.40;27.90;;;;;;;15.05;100.00;99925.27;1736484;82;21075;-73
2021/11/05 09:40:40;;;;;;;45.65;29.75;;;;;;;15.08;100.00;99919.30;1732730;82;21027;-73
2021/11/05 09:43:07;;;;;;;39.35;26.68;;;;;;;15.12;100.00;99919.01;1732523;82;20984;-73
2021/11/05 09:45:34;;;;;;;42.05;27.87;;;;;;;15.10;100.00;99914.42;1715994;82;21862;-74
2021/11/05 09:48:01;;;;;;;33.33;25.35;;;;;;;15.11;100.00;99905.19;1715777;82;20995;-73
2021/11/05 09:50:29;;;;;;;50.45;29.57;;;;;;;15.14;100.00;99908.72;1732645;82;21020;-72
2021/11/05 09:52:58;;;;;;;34.13;25.60;;;;;;;15.17;100.00;99912.77;1727707;82;21540;-72
2021/11/05 09:55:25;;;;;;;34.40;25.00;;;;;;;15.20;100.00;99912.23;1735875;81;21063;-73
2021/11/05 09:57:51;;;;;;;35.23;25.68;;;;;;;15.22;100.00;99901.37;1723470;83;21166;-75
2021/11/05 10:00:22;;;;;;;31.65;24.00;;;;;;;15.26;100.00;99907.87;1722054;83;20988;-73
2021/11/05 10:02:49;;;;;;;36.68;26.33;;;;;;;15.33;100.00;99912.19;1708274;83;21054;-77
2021/11/05 10:05:16;;;;;;;39.45;26.20;;;;;;;15.34;100.00;99897.02;1742196;81;21043;-75
2021/11/05 10:07:54;;;;;;;35.00;23.98;;;;;;;15.34;100.00;99890.25;1723601;82;20987;-78
2021/11/05 10:10:32;;;;;;;39.20;28.00;;;;;;;15.38;100.00;99881.83;1705731;84;21051;-75
2021/11/05 10:13:05;;;;;;;38.13;24.67;;;;;;;15.36;100.00;99870.98;1708487;83;21001;-75
2021/11/05 10:15:43;;;;;;;38.08;26.42;;;;;;;15.33;100.00;99865.58;1723107;83;21040;-74
2021/11/05 10:18:24;;;;;;;34.95;25.88;;;;;;;15.34;100.00;99859.62;1760790;81;21254;-75
2021/11/05 10:21:10;;;;;;;32.67;25.43;;;;;;;15.37;100.00;99866.64;1682555;84;21052;-74
2021/11/05 10:23:39;;;;;;;36.10;26.15;;;;;;;15.42;100.00;99881.53;1682428;84;21117;-73
2021/11/05 10:26:07;;;;;;;35.95;25.15;;;;;;;15.49;100.00;99886.10;1707611;83;21529;-75
2021/11/05 10:28:38;;;;;;;34.70;24.63;;;;;;;15.58;100.00;99881.78;1707857;83;21056;-78
2021/11/05 10:31:08;;;;;;;37.58;25.15;;;;;;;15.64;100.00;99883.91;1726166;81;21552;-71
2021/11/05 10:33:47;;;;;;;38.23;26.40;;;;;;;15.66;100.00;99891.23;1731569;81;21051;-72
2021/11/05 10:36:21;;;;;;;31.52;24.95;;;;;;;15.70;100.00;99890.93;1753134;81;21612;-72
2021/11/05 10:38:54;;;;;;;35.35;25.15;;;;;;;15.77;100.00;99895.52;1731922;81;21004;-74
2021/11/05 10:41:23;;;;;;;41.53;24.70;;;;;;;15.85;100.00;99903.06;1742454;81;21029;-72
2021/11/05 10:43:57;;;;;;;32.63;23.98;;;;;;;15.90;100.00;99895.45;1739754;81;21070;-73
2021/11/05 10:46:28;;;;;;;37.35;25.52;;;;;;;15.97;100.00;99891.89;1726859;82;21098;-74
2021/11/05 10:48:58;;;;;;;32.60;22.02;;;;;;;15.98;100.00;99892.14;1723586;81;21277;-72
2021/11/05 10:51:26;;;;;;;33.85;24.52;;;;;;;16.03;100.00;99882.61;1723698;81;20937;-71
2021/11/05 10:53:53;;;;;;;36.83;24.92;;;;;;;16.00;100.00;99871.79;1723454;81;21036;-70
2021/11/05 10:56:24;;;;;;;35.35;26.97;;;;;;;15.94;100.00;99857.98;1716468;83;20979;-73
2021/11/05 10:58:59;;;;;;;41.02;26.20;;;;;;;15.91;100.00;99855.03;1713384;82;21048;-72
2021/11/05 11:01:30;;;;;;;35.20;23.30;;;;;;;15.91;100.00;99872.66;1697459;84;21046;-74
2021/11/05 11:04:00;;;;;;;34.78;25.32;;;;;;;15.98;100.00;99888.06;1683090;84;22285;-73
2021/11/05 11:06:34;;;;;;;29.70;22.85;;;;;;;16.03;100.00;99896.98;1756926;81;21011;-75
2021/11/05 11:09:10;;;;;;;27.62;22.75;;;;;;;16.14;100.00;99877.39;1757618;80;21043;-76
2021/11/05 11:11:42;;;;;;;33.98;23.42;;;;;;;16.22;99.79;99859.69;1754427;81;21060;-74